Terminal Aerodrome Forecast
Issued by NWS Paducah, KY

Home | Current Version | Previous Version | Graphics & Text | Print | Product List | Glossary On
Versions: 1 2 3 4 5 6 7 8 9 10 11 12 13 14 15 16 17 18 19 20
000
FTUS43 KPAH 201730
TAFEVV
TAF
KEVV 201730Z 2018/2118 20018G30KT P6SM SCT050 BKN250
     FM210000 17010G17KT P6SM FEW030 BKN050
     FM210400 19012G21KT P6SM VCSH OVC025
     FM210700 30013G22KT 5SM -SHRA BR OVC015
     FM211000 34012G21KT 4SM -SHRA BR OVC008=

USA.gov is the U.S. government's official web portal to all federal, state and local government web resources and services.